KLGA/LGA METAR and TAF weather

Enter ICAO airport designator
Station Type Date Time Source
KLGA METAR 2021/03/01 09:51 UTC NOAA

KLGA 010951Z 03006KT 1/2SM BR OVC003 04/03 A2970 RMK AO2 SFC VIS 6 RAE03 SLP058 P0000 T00390028


Station Type Date Time Source
KLGA Decoded METAR 2021/03/01 09:51 UTC NOAA

NEW YORK LA GUARDIA AIRPORT , NY, United States (KLGA) 40-47N 73-53W 11M
Mar 01, 2021 - 04:51 AM EST / 2021.03.01 0951 UTC
Wind: from the NNE (030 degrees) at 7 MPH (6 KT):0
Visibility: 1/2 mile(s):0
Sky conditions: overcast
Weather: mist
Precipitation last hour: A trace
Temperature: 39.0 F (3.9 C)
Dew Point: 37.0 F (2.8 C)
Relative Humidity: 92%
Pressure (altimeter): 29.7 in. Hg (1005 hPa)
ob: KLGA 010951Z 03006KT 1/2SM BR OVC003 04/03 A2970 RMK AO2 SFC VIS 6 RAE03 SLP058 P0000 T00390028
cycle: 10

Station Type Date Time Source
KLGA TAF 2021/03/01 09:06 UTC NOAA

TAF
AMD KLGA 010905Z 0109/0212 VRB03KT 2SM -RA BR OVC003
TEMPO 0111/0113 1/2SM -RA FG OVC003
FM011300 28006KT 3SM -RA BR BKN005 OVC012
FM011700 30015G25KT P6SM SCT030 BKN070
FM012100 30019G34KT P6SM SCT050
FM020100 30024G39KT P6SM SCT050
FM020900 30020G31KT P6SM FEW050

Example: see airport list